Time;durP1;ratioP1;P1;durP2;ratioP2;P2;SDS_P1;SDS_P2;PMS_P1;PMS_P2;Temp;Humidity;BMP_temperature;BMP_pressure;BME280_temperature;BME280_humidity;BME280_pressure;Samples;Min_cycle;Max_cycle;Signal;HPM_P1;HPM_P2
2022/10/01 00:00:15;;;;;;;11.27;9.73;;;11.10;99.90;;;;;;5063079;28;20208;-65
2022/10/01 00:02:44;;;;;;;12.10;8.53;;;11.10;99.90;;;;;;5081239;28;20191;-65
2022/10/01 00:05:12;;;;;;;9.63;8.63;;;11.10;99.90;;;;;;5070179;28;20286;-63
2022/10/01 00:07:43;;;;;;;10.73;8.53;;;11.10;99.90;;;;;;5076518;28;20192;-65
2022/10/01 00:10:13;;;;;;;8.90;8.10;;;11.10;99.90;;;;;;5076336;28;20198;-64
2022/10/01 00:12:45;;;;;;;8.90;8.00;;;11.10;99.90;;;;;;5071013;28;20207;-65
2022/10/01 00:15:20;;;;;;;8.67;7.73;;;11.10;99.90;;;;;;5070766;28;20207;-64
2022/10/01 00:17:49;;;;;;;9.27;8.37;;;11.20;99.90;;;;;;5077498;28;20216;-65
2022/10/01 00:20:18;;;;;;;9.20;8.33;;;11.20;99.90;;;;;;5086519;28;20281;-64
2022/10/01 00:22:46;;;;;;;10.33;8.07;;;11.10;99.90;;;;;;5071654;28;20192;-65
2022/10/01 00:25:14;;;;;;;9.83;8.10;;;11.20;99.90;;;;;;5099572;28;20685;-64
2022/10/01 00:27:45;;;;;;;9.90;7.90;;;11.20;99.90;;;;;;5068401;28;20192;-64
2022/10/01 00:30:18;;;;;;;13.87;8.97;;;11.20;99.90;;;;;;5062680;28;20710;-64
2022/10/01 00:32:47;;;;;;;9.63;8.67;;;11.10;99.90;;;;;;5068712;28;20195;-64
2022/10/01 00:35:15;;;;;;;11.70;8.77;;;11.20;99.90;;;;;;5070372;28;20690;-65
2022/10/01 00:37:44;;;;;;;8.57;7.70;;;11.20;99.90;;;;;;5070148;28;20223;-67
2022/10/01 00:40:12;;;;;;;10.47;8.57;;;11.20;99.90;;;;;;5065959;28;20192;-64
2022/10/01 00:42:41;;;;;;;10.07;8.20;;;11.20;99.90;;;;;;5068817;28;20188;-65
2022/10/01 00:45:11;;;;;;;9.60;7.70;;;11.20;99.90;;;;;;5073705;28;20196;-64
2022/10/01 00:47:43;;;;;;;8.03;7.27;;;11.20;99.90;;;;;;5067613;28;20219;-64
2022/10/01 00:50:18;;;;;;;9.93;7.63;;;11.20;99.90;;;;;;5067538;28;20211;-64
2022/10/01 00:52:53;;;;;;;8.60;7.70;;;11.20;99.90;;;;;;5066397;28;20900;-64
2022/10/01 00:55:26;;;;;;;8.83;7.93;;;11.30;99.90;;;;;;5063936;28;20289;-64
2022/10/01 00:57:56;;;;;;;8.33;7.53;;;11.30;99.90;;;;;;5069504;28;20204;-64
2022/10/01 01:00:25;;;;;;;8.73;7.73;;;11.30;99.90;;;;;;5073193;28;20230;-64
2022/10/01 01:02:55;;;;;;;8.80;7.90;;;11.30;99.90;;;;;;5068260;28;20851;-64
2022/10/01 01:05:26;;;;;;;9.53;8.10;;;11.30;99.90;;;;;;5069200;28;20224;-64
2022/10/01 01:07:54;;;;;;;9.87;6.47;;;11.30;99.90;;;;;;5070072;28;20191;-64
2022/10/01 01:10:30;;;;;;;6.80;6.30;;;11.40;99.90;;;;;;5072617;28;20202;-64
2022/10/01 01:13:12;;;;;;;5.97;5.40;;;11.40;99.90;;;;;;5064517;28;20215;-64
2022/10/01 01:15:46;;;;;;;6.40;5.80;;;11.40;99.90;;;;;;5063490;28;20201;-64
2022/10/01 01:18:21;;;;;;;9.47;6.27;;;11.40;99.90;;;;;;5069670;28;20220;-64
2022/10/01 01:21:10;;;;;;;5.77;5.37;;;11.40;99.90;;;;;;5067745;28;20546;-64
2022/10/01 01:24:14;;;;;;;5.90;5.50;;;11.40;99.90;;;;;;5064341;28;20192;-64
2022/10/01 01:27:06;;;;;;;8.10;5.17;;;11.50;99.90;;;;;;5086960;28;20204;-64
2022/10/01 01:29:42;;;;;;;5.17;4.77;;;11.50;99.90;;;;;;5067818;28;20716;-64
2022/10/01 01:32:16;;;;;;;5.50;4.80;;;11.40;99.90;;;;;;5068525;28;20583;-64
2022/10/01 01:34:49;;;;;;;4.77;4.40;;;11.50;99.90;;;;;;5069635;28;20199;-64
2022/10/01 01:37:21;;;;;;;4.97;4.43;;;11.50;99.90;;;;;;5080448;28;20199;-64
2022/10/01 01:39:55;;;;;;;4.83;4.30;;;11.50;99.90;;;;;;5068819;28;20200;-64
2022/10/01 01:42:29;;;;;;;3.93;3.10;;;11.50;99.90;;;;;;5067835;28;20192;-64
2022/10/01 01:45:02;;;;;;;3.83;3.53;;;11.60;99.90;;;;;;5076035;28;20662;-63
2022/10/01 01:47:32;;;;;;;4.53;4.23;;;11.60;99.90;;;;;;5082862;28;20667;-64
2022/10/01 01:50:02;;;;;;;3.80;3.50;;;11.60;99.90;;;;;;5064689;28;20202;-65
2022/10/01 01:52:32;;;;;;;4.07;3.87;;;11.60;99.90;;;;;;5081771;28;20201;-64
2022/10/01 01:55:07;;;;;;;3.83;3.50;;;11.60;99.90;;;;;;5072961;28;20204;-64
2022/10/01 01:57:40;;;;;;;3.70;3.40;;;11.60;99.90;;;;;;5079328;28;20557;-63
2022/10/01 02:00:11;;;;;;;4.43;4.23;;;11.60;99.90;;;;;;5062411;28;20200;-63
2022/10/01 02:02:43;;;;;;;3.90;3.63;;;11.70;99.90;;;;;;5070623;28;20196;-64
2022/10/01 02:05:15;;;;;;;4.77;4.37;;;11.70;99.90;;;;;;5071509;28;20288;-63
2022/10/01 02:08:11;;;;;;;4.97;4.37;;;11.70;99.90;;;;;;5068236;28;20207;-64
2022/10/01 02:10:58;;;;;;;4.47;3.90;;;11.70;99.90;;;;;;5067995;28;20516;-64
2022/10/01 02:13:37;;;;;;;3.80;3.50;;;11.70;99.90;;;;;;5102542;27;20290;-64
2022/10/01 02:16:17;;;;;;;3.40;3.17;;;11.70;99.90;;;;;;5074990;28;20267;-63
2022/10/01 02:18:52;;;;;;;4.83;3.43;;;11.80;99.90;;;;;;5070223;28;20673;-63
2022/10/01 02:21:23;;;;;;;3.50;3.20;;;11.80;99.90;;;;;;5096828;28;20561;-63
2022/10/01 02:23:57;;;;;;;3.60;3.30;;;11.80;99.90;;;;;;5066247;28;20231;-64
2022/10/01 02:26:27;;;;;;;3.10;2.90;;;11.80;99.90;;;;;;5062592;28;20214;-64
2022/10/01 02:28:59;;;;;;;3.27;3.07;;;11.90;99.90;;;;;;5080902;28;20243;-63
2022/10/01 02:31:30;;;;;;;3.20;3.10;;;11.90;99.90;;;;;;5071355;28;20280;-63
2022/10/01 02:34:02;;;;;;;3.47;3.10;;;11.90;99.90;;;;;;5056803;28;20203;-63
2022/10/01 02:36:32;;;;;;;3.20;3.10;;;11.90;99.90;;;;;;5065359;28;20643;-64
2022/10/01 02:39:02;;;;;;;3.60;3.40;;;11.90;99.90;;;;;;5067529;28;20215;-63
2022/10/01 02:41:37;;;;;;;3.90;3.63;;;11.90;99.90;;;;;;5070387;28;20208;-63
2022/10/01 02:44:10;;;;;;;4.13;3.57;;;12.00;99.90;;;;;;5068437;28;20192;-64
2022/10/01 02:46:44;;;;;;;4.50;4.17;;;12.00;99.90;;;;;;5072718;28;20200;-64
2022/10/01 02:49:13;;;;;;;4.70;4.40;;;12.00;99.90;;;;;;5078798;28;20198;-63
2022/10/01 02:51:50;;;;;;;5.10;4.80;;;12.00;99.90;;;;;;5064203;28;20205;-64
2022/10/01 02:54:24;;;;;;;5.27;4.87;;;12.10;99.90;;;;;;5072261;28;20667;-64
2022/10/01 02:59:38;;;;;;;6.77;5.40;;;12.10;99.90;;;;;;5065748;28;20218;-64
2022/10/01 03:02:08;;;;;;;6.10;5.57;;;12.20;99.90;;;;;;5069043;28;20223;-64
2022/10/01 03:04:37;;;;;;;6.53;5.63;;;12.20;99.90;;;;;;5069120;28;20289;-64
2022/10/01 03:07:06;;;;;;;6.47;5.87;;;12.20;99.90;;;;;;5071646;28;20547;-64
2022/10/01 03:09:35;;;;;;;6.67;6.10;;;12.30;99.90;;;;;;5061120;28;20197;-64
2022/10/01 03:12:05;;;;;;;7.53;5.90;;;12.30;99.90;;;;;;5064416;28;20191;-64
2022/10/01 03:14:33;;;;;;;6.50;5.87;;;12.30;99.90;;;;;;5074484;28;20258;-64
2022/10/01 03:17:02;;;;;;;7.93;5.83;;;12.40;99.90;;;;;;5047879;28;20208;-64
2022/10/01 03:19:31;;;;;;;6.77;6.27;;;12.50;99.90;;;;;;5063558;28;20298;-64
2022/10/01 03:22:02;;;;;;;6.50;6.00;;;12.50;99.90;;;;;;5057462;28;20196;-64
2022/10/01 03:24:30;;;;;;;6.33;5.93;;;12.50;99.90;;;;;;5063615;28;20228;-64
2022/10/01 03:26:58;;;;;;;6.83;5.80;;;12.50;99.90;;;;;;5055394;28;20259;-64
2022/10/01 03:29:27;;;;;;;6.47;5.97;;;12.60;99.90;;;;;;5063563;28;20192;-64
2022/10/01 03:31:55;;;;;;;7.90;6.13;;;12.50;99.90;;;;;;5061969;28;20560;-63
2022/10/01 03:34:23;;;;;;;7.63;6.00;;;12.60;99.90;;;;;;5065012;28;20191;-63
2022/10/01 03:36:53;;;;;;;8.23;5.60;;;12.60;99.90;;;;;;5061320;28;20733;-63
2022/10/01 03:39:21;;;;;;;7.27;5.90;;;12.70;99.90;;;;;;5067298;28;20212;-63
2022/10/01 03:41:49;;;;;;;6.07;5.60;;;12.70;99.90;;;;;;5063526;28;20196;-64
2022/10/01 03:44:18;;;;;;;6.17;5.67;;;12.70;99.90;;;;;;5065626;28;20227;-63
2022/10/01 03:46:46;;;;;;;6.43;5.70;;;12.80;99.90;;;;;;5063113;28;20197;-64
2022/10/01 03:49:14;;;;;;;6.17;5.80;;;12.80;99.90;;;;;;5074547;28;20202;-63
2022/10/01 03:51:44;;;;;;;6.00;5.50;;;12.80;99.90;;;;;;5069771;28;20196;-64
2022/10/01 03:54:14;;;;;;;7.20;6.00;;;12.80;99.90;;;;;;5078680;28;20673;-63
2022/10/01 03:56:42;;;;;;;6.27;5.77;;;12.80;99.90;;;;;;5070124;28;20204;-63
2022/10/01 03:59:10;;;;;;;6.03;5.53;;;12.90;99.90;;;;;;5073772;28;20814;-63
2022/10/01 04:01:39;;;;;;;6.33;5.87;;;12.80;99.90;;;;;;5066392;28;20204;-63
2022/10/01 04:04:08;;;;;;;6.30;5.77;;;12.90;99.90;;;;;;5101112;28;20188;-63
2022/10/01 04:06:36;;;;;;;6.33;5.83;;;12.90;99.90;;;;;;5057226;28;20232;-63
2022/10/01 04:09:05;;;;;;;6.00;5.53;;;12.90;99.90;;;;;;5065010;28;20195;-63
2022/10/01 04:11:35;;;;;;;6.30;5.73;;;12.90;99.90;;;;;;5059237;28;20189;-63
2022/10/01 04:14:04;;;;;;;5.83;5.40;;;13.00;99.90;;;;;;5061193;28;20216;-63
2022/10/01 04:16:35;;;;;;;6.10;5.70;;;13.00;99.90;;;;;;5066426;28;20201;-64
2022/10/01 04:19:03;;;;;;;8.07;5.97;;;13.00;99.90;;;;;;5053470;28;20202;-64
2022/10/01 04:21:32;;;;;;;6.20;5.80;;;12.90;99.90;;;;;;5071595;28;20199;-64
2022/10/01 04:24:03;;;;;;;5.93;5.50;;;12.90;99.90;;;;;;5068884;28;20314;-64
2022/10/01 04:26:33;;;;;;;5.37;5.07;;;13.00;99.90;;;;;;5085082;28;20351;-64
2022/10/01 04:29:02;;;;;;;6.53;5.93;;;12.90;99.90;;;;;;5084129;28;20219;-64
2022/10/01 04:31:33;;;;;;;6.87;6.27;;;13.00;99.90;;;;;;5082160;28;20214;-64
2022/10/01 04:34:03;;;;;;;7.50;6.77;;;13.00;99.90;;;;;;5090213;28;20716;-64
2022/10/01 04:36:31;;;;;;;6.97;6.37;;;13.00;99.90;;;;;;5079528;28;20196;-64
2022/10/01 04:38:59;;;;;;;7.77;7.07;;;12.90;99.90;;;;;;5085873;28;20203;-64
2022/10/01 04:41:30;;;;;;;8.93;7.43;;;13.00;99.90;;;;;;5064999;28;20216;-64
2022/10/01 04:44:00;;;;;;;8.50;7.80;;;13.00;99.90;;;;;;5082851;28;20684;-64
2022/10/01 04:46:29;;;;;;;9.83;8.00;;;13.00;99.90;;;;;;5086765;28;20204;-64
2022/10/01 04:48:58;;;;;;;8.63;7.77;;;13.00;99.90;;;;;;5087791;28;20227;-64
2022/10/01 04:51:26;;;;;;;9.00;8.20;;;13.10;99.90;;;;;;5076750;28;20737;-64
2022/10/01 04:53:54;;;;;;;10.73;8.10;;;13.10;99.90;;;;;;5065739;28;20545;-64
2022/10/01 04:56:22;;;;;;;10.43;8.13;;;13.10;99.90;;;;;;5079194;28;20195;-64
2022/10/01 04:58:51;;;;;;;10.80;8.67;;;13.10;99.90;;;;;;5075982;28;20188;-64
2022/10/01 05:01:20;;;;;;;9.87;8.87;;;13.10;99.90;;;;;;5071741;28;20701;-64
2022/10/01 05:03:48;;;;;;;10.37;8.17;;;13.20;99.90;;;;;;5076730;28;20199;-64
2022/10/01 05:06:17;;;;;;;13.07;8.50;;;13.10;99.90;;;;;;5073013;28;20239;-64
2022/10/01 05:08:48;;;;;;;8.77;8.03;;;13.10;99.90;;;;;;5064294;28;20203;-64
2022/10/01 05:11:16;;;;;;;8.87;7.80;;;13.10;99.90;;;;;;5072608;28;20205;-64
2022/10/01 05:13:45;;;;;;;9.50;7.50;;;13.10;99.90;;;;;;5063651;28;20188;-64
2022/10/01 05:16:13;;;;;;;8.30;6.97;;;13.00;99.90;;;;;;5070255;28;20201;-64
2022/10/01 05:18:43;;;;;;;6.93;6.43;;;13.10;99.90;;;;;;5067823;28;20200;-64
2022/10/01 05:21:14;;;;;;;6.90;6.20;;;13.10;99.90;;;;;;5067436;28;20235;-64
2022/10/01 05:23:43;;;;;;;7.20;6.03;;;13.00;99.90;;;;;;5069652;28;20200;-64
2022/10/01 05:26:11;;;;;;;13.33;7.40;;;13.10;99.90;;;;;;5069606;28;20527;-64
2022/10/01 05:28:43;;;;;;;14.87;7.00;;;13.00;99.90;;;;;;5071548;28;20203;-64
2022/10/01 05:31:12;;;;;;;9.30;6.73;;;13.10;99.90;;;;;;5070297;28;20296;-64
2022/10/01 05:33:42;;;;;;;9.63;6.67;;;13.10;99.90;;;;;;5068418;28;20204;-64
2022/10/01 05:36:10;;;;;;;12.77;6.43;;;13.10;99.90;;;;;;5070681;28;20199;-63
2022/10/01 05:38:38;;;;;;;7.77;5.80;;;13.20;99.90;;;;;;5074900;28;20195;-64
2022/10/01 05:41:06;;;;;;;10.03;5.53;;;13.10;99.90;;;;;;5068156;28;20695;-63
2022/10/01 05:43:35;;;;;;;6.30;5.30;;;13.20;99.90;;;;;;5090137;28;20199;-64
2022/10/01 05:46:05;;;;;;;6.77;5.80;;;13.20;99.90;;;;;;5067176;28;20188;-64
2022/10/01 05:48:36;;;;;;;9.50;5.70;;;13.20;99.90;;;;;;5068076;28;20189;-63
2022/10/01 05:51:07;;;;;;;6.13;5.53;;;13.20;99.90;;;;;;5060679;28;20200;-63
2022/10/01 05:53:37;;;;;;;8.73;5.13;;;13.20;99.90;;;;;;5070507;28;20191;-64
2022/10/01 05:56:06;;;;;;;7.50;5.23;;;13.30;99.90;;;;;;5065232;28;20211;-63
2022/10/01 05:58:34;;;;;;;9.20;5.23;;;13.30;99.90;;;;;;5073457;28;20212;-63
2022/10/01 06:01:03;;;;;;;8.87;5.10;;;13.40;99.90;;;;;;5062319;28;20736;-63
2022/10/01 06:03:31;;;;;;;9.20;4.80;;;13.50;99.90;;;;;;5085132;28;20199;-64
2022/10/01 06:06:00;;;;;;;5.87;4.90;;;13.50;99.90;;;;;;5068057;28;20235;-63
2022/10/01 06:08:30;;;;;;;7.17;4.70;;;13.50;99.90;;;;;;5069480;28;20195;-63
2022/10/01 06:11:02;;;;;;;9.93;4.77;;;13.60;99.90;;;;;;5062487;28;20234;-63
2022/10/01 06:13:30;;;;;;;5.20;4.43;;;13.50;99.90;;;;;;5070065;28;20195;-64
2022/10/01 06:15:59;;;;;;;5.53;4.13;;;13.50;99.90;;;;;;5062626;28;20828;-64
2022/10/01 06:18:30;;;;;;;9.97;4.10;;;13.60;99.90;;;;;;5067380;28;20197;-63
2022/10/01 06:21:01;;;;;;;10.87;4.23;;;13.60;99.90;;;;;;5075533;28;20268;-63
2022/10/01 06:23:30;;;;;;;10.87;4.13;;;13.60;99.90;;;;;;5079048;28;20219;-63
2022/10/01 06:25:59;;;;;;;4.53;4.10;;;13.50;99.90;;;;;;5066376;28;20199;-63
2022/10/01 06:28:28;;;;;;;10.47;4.53;;;13.50;99.90;;;;;;5062136;28;20220;-63
2022/10/01 06:30:56;;;;;;;6.37;4.73;;;13.50;99.90;;;;;;5068572;28;20555;-63
2022/10/01 06:33:25;;;;;;;8.93;4.30;;;13.50;99.90;;;;;;5066739;28;20277;-63
2022/10/01 06:35:53;;;;;;;12.23;5.07;;;13.50;99.90;;;;;;5068376;28;20188;-64
2022/10/01 06:38:23;;;;;;;12.57;6.00;;;13.60;99.90;;;;;;5063339;28;20200;-64
2022/10/01 06:40:54;;;;;;;11.37;5.67;;;13.70;99.90;;;;;;5066900;28;20586;-63
2022/10/01 06:43:23;;;;;;;15.17;6.33;;;13.70;99.90;;;;;;5069818;28;20279;-63
2022/10/01 06:45:52;;;;;;;11.50;6.83;;;13.80;99.90;;;;;;5057459;28;20193;-63
2022/10/01 06:48:20;;;;;;;15.33;7.30;;;13.80;99.90;;;;;;5056971;28;20651;-63
2022/10/01 06:50:51;;;;;;;20.87;7.70;;;13.80;99.90;;;;;;5075529;28;20206;-63
2022/10/01 06:53:19;;;;;;;19.73;8.00;;;13.90;99.90;;;;;;5079745;28;20188;-63
2022/10/01 06:55:48;;;;;;;23.00;7.57;;;13.90;99.90;;;;;;5065900;28;20196;-63
2022/10/01 06:58:20;;;;;;;17.40;6.90;;;14.00;99.90;;;;;;5063523;28;20257;-63
2022/10/01 07:00:49;;;;;;;18.07;6.07;;;14.00;99.90;;;;;;5064051;28;20213;-63
2022/10/01 07:03:20;;;;;;;22.13;6.43;;;14.00;99.90;;;;;;5069785;28;20288;-63
2022/10/01 07:05:48;;;;;;;19.43;5.70;;;14.10;99.90;;;;;;5069856;28;20702;-63
2022/10/01 07:08:17;;;;;;;24.43;6.13;;;14.10;99.90;;;;;;5072101;28;20653;-63
2022/10/01 07:10:46;;;;;;;14.23;5.03;;;14.30;99.90;;;;;;5077539;28;20203;-63
2022/10/01 07:13:16;;;;;;;18.53;5.40;;;14.40;99.90;;;;;;5061898;28;20239;-63
2022/10/01 07:15:46;;;;;;;27.20;5.23;;;14.40;99.90;;;;;;5052912;28;20179;-63
2022/10/01 07:18:15;;;;;;;17.57;5.03;;;14.40;99.90;;;;;;5073800;28;20215;-63
2022/10/01 07:20:43;;;;;;;22.60;4.53;;;14.50;99.90;;;;;;5077076;28;20220;-63
2022/10/01 07:23:14;;;;;;;17.73;5.03;;;14.70;99.90;;;;;;5061376;28;20215;-63
2022/10/01 07:25:43;;;;;;;14.97;4.60;;;14.80;99.90;;;;;;5067325;28;20624;-63
2022/10/01 07:28:16;;;;;;;14.60;4.37;;;14.80;99.90;;;;;;5072552;28;20197;-63
2022/10/01 07:30:57;;;;;;;19.00;5.03;;;14.80;99.90;;;;;;5078211;28;20199;-63
2022/10/01 07:33:25;;;;;;;16.27;4.47;;;14.80;99.90;;;;;;5061074;28;20204;-64
2022/10/01 07:35:54;;;;;;;20.57;4.93;;;14.80;99.90;;;;;;5076912;28;20650;-63
2022/10/01 07:38:22;;;;;;;14.17;4.80;;;14.90;99.90;;;;;;5065446;28;20195;-63
2022/10/01 07:40:53;;;;;;;15.83;4.13;;;15.00;99.90;;;;;;5076977;28;20199;-63
2022/10/01 07:43:22;;;;;;;14.50;3.87;;;15.00;99.90;;;;;;5066598;28;20599;-63
2022/10/01 07:45:53;;;;;;;17.53;3.83;;;15.00;99.90;;;;;;5066131;28;20189;-63
2022/10/01 07:48:22;;;;;;;16.90;4.10;;;15.00;99.90;;;;;;5052288;28;20203;-64
2022/10/01 07:50:51;;;;;;;17.00;4.63;;;15.10;99.90;;;;;;5057918;28;20200;-63
2022/10/01 07:53:19;;;;;;;20.90;5.33;;;15.20;99.90;;;;;;5060203;28;20691;-63
2022/10/01 07:55:47;;;;;;;17.97;4.50;;;15.30;99.90;;;;;;5102221;28;20188;-63
2022/10/01 07:58:17;;;;;;;18.67;4.37;;;15.40;99.90;;;;;;5060459;28;20203;-64
2022/10/01 08:00:45;;;;;;;19.30;4.80;;;15.40;99.90;;;;;;5067857;28;20184;-64
2022/10/01 08:03:15;;;;;;;23.60;4.27;;;15.50;99.90;;;;;;5065490;28;20263;-63
2022/10/01 08:05:45;;;;;;;19.20;4.00;;;15.60;99.90;;;;;;5065460;28;20572;-63
2022/10/01 08:08:13;;;;;;;27.13;4.33;;;15.60;99.90;;;;;;5058355;28;20193;-63
2022/10/01 08:10:41;;;;;;;18.90;4.17;;;15.60;99.90;;;;;;5072118;28;20668;-63
2022/10/01 08:13:14;;;;;;;19.73;4.27;;;15.70;99.90;;;;;;5066092;28;20189;-63
2022/10/01 08:15:43;;;;;;;14.53;3.77;;;15.70;99.90;;;;;;5072261;28;20209;-63
2022/10/01 08:18:12;;;;;;;20.17;4.13;;;15.80;99.90;;;;;;5057383;28;20198;-63
2022/10/01 08:20:42;;;;;;;19.43;4.70;;;15.90;99.90;;;;;;5070300;28;20226;-63
2022/10/01 08:23:13;;;;;;;21.80;5.00;;;15.80;99.90;;;;;;5070453;28;20208;-63
2022/10/01 08:25:43;;;;;;;17.67;4.20;;;15.90;99.90;;;;;;5065280;28;20641;-64
2022/10/01 08:28:12;;;;;;;17.27;4.13;;;15.90;99.90;;;;;;5064034;28;20192;-63
2022/10/01 08:30:42;;;;;;;14.27;4.70;;;15.80;99.90;;;;;;5077397;28;20195;-63
2022/10/01 08:33:12;;;;;;;16.70;5.83;;;15.90;99.90;;;;;;5075053;28;20201;-63
2022/10/01 08:35:42;;;;;;;13.03;5.33;;;15.90;99.90;;;;;;5067437;28;20567;-64
2022/10/01 08:38:11;;;;;;;18.57;5.73;;;15.90;99.90;;;;;;5071417;28;20203;-63
2022/10/01 08:40:45;;;;;;;18.23;6.10;;;16.00;99.90;;;;;;5081615;28;20200;-63
2022/10/01 08:43:30;;;;;;;18.13;6.33;;;16.00;99.90;;;;;;5078943;28;20212;-63
2022/10/01 08:46:01;;;;;;;22.40;5.93;;;15.80;99.90;;;;;;5081191;28;20199;-63
2022/10/01 08:48:44;;;;;;;21.27;5.30;;;15.80;99.90;;;;;;5091973;28;20189;-63
2022/10/01 08:51:21;;;;;;;18.40;5.97;;;15.90;99.90;;;;;;5085274;28;20197;-64
2022/10/01 08:53:54;;;;;;;18.77;5.47;;;15.90;99.90;;;;;;5082781;28;20199;-63
2022/10/01 08:56:24;;;;;;;18.40;6.90;;;15.90;99.90;;;;;;5081741;28;20203;-63
2022/10/01 08:58:57;;;;;;;21.37;5.27;;;15.90;99.90;;;;;;5076220;28;20199;-63
2022/10/01 09:01:27;;;;;;;20.80;5.60;;;15.90;99.90;;;;;;5062001;28;20672;-63
2022/10/01 09:03:56;;;;;;;21.83;5.67;;;15.90;99.90;;;;;;5067208;28;20675;-63
2022/10/01 09:06:27;;;;;;;20.07;5.23;;;15.90;99.90;;;;;;5071326;28;20223;-63
2022/10/01 09:09:08;;;;;;;13.03;4.73;;;16.00;99.90;;;;;;5071106;28;20196;-63
2022/10/01 09:11:47;;;;;;;20.93;5.63;;;16.00;99.90;;;;;;5057764;28;20566;-63
2022/10/01 09:14:50;;;;;;;18.20;5.23;;;16.00;99.90;;;;;;5067677;28;20192;-63
2022/10/01 09:17:28;;;;;;;22.63;4.97;;;16.20;99.90;;;;;;5063559;28;20200;-63
2022/10/01 09:20:03;;;;;;;16.73;5.07;;;16.40;99.90;;;;;;5093834;28;20752;-63
2022/10/01 09:22:39;;;;;;;15.60;3.97;;;16.70;99.90;;;;;;5063826;28;20243;-63
2022/10/01 09:25:14;;;;;;;14.93;3.83;;;17.00;99.90;;;;;;5058776;28;20211;-64
2022/10/01 09:27:42;;;;;;;17.67;4.13;;;17.20;99.90;;;;;;5060011;28;20211;-63
2022/10/01 09:30:14;;;;;;;13.30;3.40;;;17.30;99.90;;;;;;5052664;28;20619;-63
2022/10/01 09:32:46;;;;;;;12.30;3.63;;;17.30;99.90;;;;;;5069106;28;20188;-63
2022/10/01 09:35:29;;;;;;;19.67;3.70;;;17.20;99.90;;;;;;5059874;28;20197;-63
2022/10/01 09:38:03;;;;;;;15.87;3.57;;;17.00;99.90;;;;;;5060010;28;20204;-63
2022/10/01 09:40:38;;;;;;;12.77;3.80;;;16.90;99.90;;;;;;5059725;28;20222;-63
2022/10/01 09:43:08;;;;;;;21.80;4.27;;;16.90;99.90;;;;;;5056151;28;20222;-63
2022/10/01 09:45:38;;;;;;;15.10;3.80;;;16.70;99.90;;;;;;5059522;28;20672;-63
2022/10/01 09:48:18;;;;;;;18.00;4.27;;;16.60;99.90;;;;;;5057898;28;20313;-63
2022/10/01 09:50:53;;;;;;;15.00;3.90;;;16.70;99.90;;;;;;5052353;28;20203;-63
2022/10/01 09:53:27;;;;;;;12.77;3.47;;;16.60;99.90;;;;;;5068215;28;20197;-63
2022/10/01 09:56:01;;;;;;;17.20;4.07;;;16.70;99.90;;;;;;5070405;28;20199;-63
2022/10/01 09:58:30;;;;;;;17.83;4.40;;;16.70;99.90;;;;;;5058378;28;20830;-63
2022/10/01 10:00:59;;;;;;;20.03;4.13;;;16.80;99.90;;;;;;5071166;28;20192;-63
2022/10/01 10:03:29;;;;;;;15.97;4.00;;;16.90;99.90;;;;;;5066047;28;20959;-63
2022/10/01 10:06:00;;;;;;;11.53;4.07;;;16.90;99.90;;;;;;5058949;28;20218;-63
2022/10/01 10:08:35;;;;;;;8.87;3.77;;;17.00;99.90;;;;;;5062760;28;20684;-63
2022/10/01 10:11:08;;;;;;;11.70;4.30;;;17.00;99.90;;;;;;5074492;28;20190;-63
2022/10/01 10:13:39;;;;;;;11.70;3.80;;;17.20;99.90;;;;;;5063249;28;20201;-63
2022/10/01 10:16:14;;;;;;;18.77;3.90;;;17.40;99.90;;;;;;5074466;28;20193;-63
2022/10/01 10:18:42;;;;;;;10.40;3.57;;;17.40;99.90;;;;;;5063963;28;20257;-63
2022/10/01 10:21:15;;;;;;;16.37;3.77;;;17.50;99.90;;;;;;5058834;28;20193;-63
2022/10/01 10:23:50;;;;;;;14.90;3.30;;;17.50;99.90;;;;;;5079526;28;20223;-63
2022/10/01 10:26:21;;;;;;;14.70;3.53;;;17.50;99.90;;;;;;5071050;28;20204;-64
2022/10/01 10:28:49;;;;;;;15.90;3.70;;;17.50;99.90;;;;;;5069268;28;20207;-63
2022/10/01 10:31:22;;;;;;;8.43;3.80;;;17.40;99.90;;;;;;5070476;28;20249;-63
2022/10/01 10:33:54;;;;;;;12.87;4.80;;;17.20;99.90;;;;;;5074724;28;20202;-63
2022/10/01 10:36:27;;;;;;;21.97;5.00;;;17.00;99.90;;;;;;5061912;28;20701;-63
2022/10/01 10:38:58;;;;;;;14.97;4.87;;;16.90;99.90;;;;;;5073237;28;20551;-63
2022/10/01 10:41:29;;;;;;;11.33;4.60;;;16.80;99.90;;;;;;5061664;28;20202;-63
2022/10/01 10:44:01;;;;;;;11.07;4.00;;;16.80;99.90;;;;;;5053686;28;20248;-64
2022/10/01 10:46:31;;;;;;;10.77;3.70;;;16.70;99.90;;;;;;5057246;28;20235;-63
2022/10/01 10:49:05;;;;;;;16.17;3.97;;;16.70;99.90;;;;;;5064287;28;20212;-63
2022/10/01 10:51:44;;;;;;;11.83;3.50;;;16.80;99.90;;;;;;5063659;28;20195;-63
2022/10/01 10:54:31;;;;;;;10.57;3.83;;;17.20;99.90;;;;;;5061585;28;20642;-63
2022/10/01 10:57:02;;;;;;;10.80;3.33;;;17.60;99.90;;;;;;5059830;28;20229;-64
2022/10/01 10:59:32;;;;;;;10.57;3.20;;;17.90;99.90;;;;;;5063334;28;20200;-63
2022/10/01 11:02:02;;;;;;;12.77;3.20;;;18.30;99.90;;;;;;5060821;28;20226;-64
2022/10/01 11:04:39;;;;;;;10.43;3.33;;;18.40;99.90;;;;;;5056427;28;20208;-62
2022/10/01 11:07:10;;;;;;;13.70;3.30;;;18.60;99.90;;;;;;5058387;28;20223;-63
2022/10/01 11:09:51;;;;;;;7.90;3.13;;;18.90;99.90;;;;;;5065074;28;20203;-63
2022/10/01 11:12:34;;;;;;;8.83;3.00;;;19.10;99.90;;;;;;5062258;28;20275;-63
2022/10/01 11:15:16;;;;;;;12.17;3.00;;;19.40;99.90;;;;;;5059380;28;20803;-63
2022/10/01 11:18:19;;;;;;;13.17;3.07;;;19.50;99.90;;;;;;5066869;28;20198;-63
2022/10/01 11:20:59;;;;;;;6.60;2.57;;;19.30;99.90;;;;;;5076650;28;20187;-63
2022/10/01 11:23:54;;;;;;;8.03;2.93;;;19.10;99.90;;;;;;5062690;28;20211;-63
2022/10/01 11:26:30;;;;;;;15.67;3.57;;;19.00;99.90;;;;;;5071470;28;20206;-63
2022/10/01 11:29:12;;;;;;;8.90;3.03;;;18.60;99.90;;;;;;5065667;28;20203;-63
2022/10/01 11:31:51;;;;;;;11.53;3.50;;;18.30;99.90;;;;;;5059540;28;20601;-63
2022/10/01 11:34:51;;;;;;;10.83;2.70;;;18.00;99.90;;;;;;5066838;28;20204;-63
2022/10/01 11:37:40;;;;;;;12.23;3.47;;;17.80;99.90;;;;;;5067739;28;20195;-63
2022/10/01 11:40:17;;;;;;;13.53;3.23;;;17.80;99.90;;;;;;5065125;28;20196;-63
2022/10/01 11:42:49;;;;;;;9.03;3.17;;;17.70;99.90;;;;;;5066090;28;20650;-63
2022/10/01 11:45:20;;;;;;;17.23;3.67;;;17.50;99.90;;;;;;5076354;28;20224;-63
2022/10/01 11:47:54;;;;;;;13.00;3.77;;;17.40;99.90;;;;;;5085382;28;20208;-63
2022/10/01 11:50:25;;;;;;;11.60;3.00;;;17.60;99.90;;;;;;5064417;28;20200;-63
2022/10/01 11:52:57;;;;;;;10.23;2.97;;;18.10;99.90;;;;;;5068771;28;20655;-63
2022/10/01 12:01:17;;;;;;;10.80;3.27;;;19.10;99.90;;;;;;5065858;28;20208;-63
2022/10/01 12:04:00;;;;;;;8.37;3.43;;;19.30;99.90;;;;;;5062831;28;20677;-63
2022/10/01 12:06:32;;;;;;;10.27;4.20;;;19.40;99.90;;;;;;5064914;28;20232;-63
2022/10/01 12:09:07;;;;;;;8.93;2.60;;;19.40;99.90;;;;;;5059625;28;20220;-63
2022/10/01 12:11:42;;;;;;;6.93;2.90;;;19.50;99.90;;;;;;5066057;28;20199;-63
2022/10/01 12:14:17;;;;;;;12.37;2.57;;;19.60;99.90;;;;;;5065264;28;20523;-62
2022/10/01 12:16:51;;;;;;;10.83;3.97;;;19.90;99.90;;;;;;5065435;28;20207;-63
2022/10/01 12:19:25;;;;;;;8.20;2.67;;;20.20;99.90;;;;;;5055171;28;20660;-63
2022/10/01 12:21:57;;;;;;;8.10;2.30;;;20.40;99.90;;;;;;5059661;28;20212;-64
2022/10/01 12:24:31;;;;;;;14.63;2.90;;;20.60;99.90;;;;;;5059187;28;20223;-63
2022/10/01 12:27:19;;;;;;;13.13;5.77;;;20.60;99.90;;;;;;5060240;28;20210;-63
2022/10/01 12:29:58;;;;;;;12.50;2.33;;;20.90;99.90;;;;;;5065826;28;20204;-63
2022/10/01 12:32:36;;;;;;;9.13;2.50;;;21.00;99.90;;;;;;5066491;28;20195;-63
2022/10/01 12:35:17;;;;;;;7.50;2.10;;;21.00;99.90;;;;;;5068287;28;20192;-62
2022/10/01 12:38:01;;;;;;;9.97;2.57;;;20.90;99.90;;;;;;5062698;28;20195;-63
2022/10/01 12:40:38;;;;;;;14.93;2.87;;;20.40;99.90;;;;;;5062486;28;20192;-63
2022/10/01 12:43:24;;;;;;;9.80;2.30;;;19.90;99.90;;;;;;5057442;28;20231;-62
2022/10/01 12:46:02;;;;;;;10.70;2.77;;;19.40;99.90;;;;;;5055802;28;20194;-63
2022/10/01 12:48:36;;;;;;;10.53;2.77;;;19.30;99.90;;;;;;5059951;28;20200;-62
2022/10/01 12:51:22;;;;;;;9.20;2.53;;;19.40;99.90;;;;;;5090648;28;20205;-63
2022/10/01 12:54:01;;;;;;;10.60;2.80;;;19.20;99.90;;;;;;5065372;28;20226;-62
2022/10/01 12:56:33;;;;;;;10.77;2.50;;;19.20;99.90;;;;;;5062059;28;20192;-63
2022/10/01 12:59:39;;;;;;;8.27;2.40;;;19.10;99.90;;;;;;5058632;28;20204;-63
2022/10/01 13:02:27;;;;;;;9.27;2.63;;;19.00;99.90;;;;;;5058877;28;20648;-62
2022/10/01 13:05:09;;;;;;;9.47;2.77;;;19.10;99.90;;;;;;5064358;28;20215;-63
2022/10/01 13:08:06;;;;;;;5.57;2.37;;;19.20;99.90;;;;;;5062321;28;20227;-63
2022/10/01 13:10:47;;;;;;;11.43;2.53;;;19.40;99.90;;;;;;5063421;28;20192;-63
2022/10/01 13:13:21;;;;;;;9.60;2.60;;;19.80;99.90;;;;;;5060038;28;20264;-62
2022/10/01 13:15:54;;;;;;;6.77;2.00;;;20.10;99.90;;;;;;5067386;28;20534;-62
2022/10/01 13:18:35;;;;;;;8.10;2.20;;;20.10;99.90;;;;;;5062704;28;20275;-62